createdAt,value
2022-09-11T00:00:53.937Z,81.93
2022-09-11T00:03:37.334Z,82.04
2022-09-11T00:06:12.381Z,82.04
2022-09-11T00:08:45.335Z,82.34
2022-09-11T00:11:19.676Z,82.47
2022-09-11T00:13:54.116Z,82.55
2022-09-11T00:16:28.704Z,82.61
2022-09-11T00:19:04.172Z,82.65
2022-09-11T00:21:36.501Z,82.75
2022-09-11T00:24:10.149Z,82.59
2022-09-11T00:26:42.751Z,82.79
2022-09-11T00:29:14.763Z,82.74
2022-09-11T00:31:46.714Z,82.75
2022-09-11T00:34:18.892Z,82.66
2022-09-11T00:36:51.304Z,82.92
2022-09-11T00:39:23.195Z,82.93
2022-09-11T00:41:55.427Z,82.86
2022-09-11T00:45:02.007Z,83.09
2022-09-11T00:47:35.297Z,83.15
2022-09-11T00:50:14.831Z,82.94
2022-09-11T00:52:54.902Z,82.95
2022-09-11T00:55:32.286Z,83.05
2022-09-11T00:58:07.352Z,82.84
2022-09-11T01:00:40.575Z,82.82
2022-09-11T01:03:12.794Z,83.14
2022-09-11T01:05:44.935Z,83.11
2022-09-11T01:08:17.128Z,83.03
2022-09-11T01:11:01.552Z,83.29
2022-09-11T01:13:38.906Z,83.18
2022-09-11T01:16:19.959Z,83.16
2022-09-11T01:19:02.200Z,83.27
2022-09-11T01:22:02.291Z,83.15
2022-09-11T01:24:56.529Z,83.32
2022-09-11T01:27:50.741Z,83.29
2022-09-11T01:30:25.153Z,83.50
2022-09-11T01:33:12.381Z,83.46
2022-09-11T01:35:55.286Z,83.74
2022-09-11T01:38:34.854Z,83.79
2022-09-11T01:41:12.551Z,83.91
2022-09-11T01:43:51.458Z,83.98
2022-09-11T01:46:27.318Z,83.95
2022-09-11T01:49:04.932Z,83.96
2022-09-11T01:51:39.121Z,83.96
2022-09-11T01:54:16.464Z,84.01
2022-09-11T01:56:52.554Z,83.94
2022-09-11T01:59:29.124Z,83.87
2022-09-11T02:02:07.776Z,83.66
2022-09-11T02:04:43.645Z,83.83
2022-09-11T02:07:19.246Z,83.76
2022-09-11T02:09:59.379Z,83.40
2022-09-11T02:12:41.535Z,83.44
2022-09-11T02:15:16.973Z,83.51
2022-09-11T02:17:55.629Z,83.42
2022-09-11T02:20:31.423Z,83.67
2022-09-11T02:23:03.352Z,83.74
2022-09-11T02:25:35.347Z,83.87
2022-09-11T02:28:10.788Z,83.97
2022-09-11T02:30:43.991Z,84.02
2022-09-11T02:33:36.012Z,84.00
2022-09-11T02:36:22.379Z,83.97
2022-09-11T02:39:08.850Z,83.90
2022-09-11T02:41:52.743Z,83.90
2022-09-11T02:44:36.533Z,83.94
2022-09-11T02:47:20.255Z,84.07
2022-09-11T02:50:07.360Z,84.25
2022-09-11T02:52:50.727Z,84.11
2022-09-11T02:55:30.242Z,84.25
2022-09-11T02:58:08.705Z,84.19
2022-09-11T03:00:41.095Z,84.36
2022-09-11T03:03:13.514Z,84.24
2022-09-11T03:05:46.646Z,84.26
2022-09-11T03:08:19.366Z,84.31
2022-09-11T03:10:51.205Z,84.29
2022-09-11T03:13:23.180Z,84.49
2022-09-11T03:15:55.388Z,84.53
2022-09-11T03:18:27.342Z,84.61
2022-09-11T03:20:59.166Z,84.68
2022-09-11T03:23:31.926Z,84.49
2022-09-11T03:26:03.759Z,84.48
2022-09-11T03:28:35.816Z,84.51
2022-09-11T03:31:13.423Z,84.67
2022-09-11T03:33:45.333Z,84.69
2022-09-11T03:36:19.517Z,84.65
2022-09-11T03:38:52.883Z,84.74
2022-09-11T03:41:26.226Z,84.78
2022-09-11T03:43:58.290Z,84.66
2022-09-11T03:46:30.158Z,84.84
2022-09-11T03:49:02.885Z,84.78
2022-09-11T03:51:35.969Z,84.97
2022-09-11T03:54:08.027Z,84.95
2022-09-11T03:56:40.047Z,84.70
2022-09-11T03:59:12.776Z,84.80
2022-09-11T04:01:44.638Z,84.81
2022-09-11T04:04:17.336Z,84.86
2022-09-11T04:06:49.159Z,84.88
2022-09-11T04:09:21.214Z,84.70
2022-09-11T04:11:54.847Z,84.71
2022-09-11T04:14:30.043Z,84.79
2022-09-11T04:17:03.166Z,84.67
2022-09-11T04:19:34.995Z,84.70
2022-09-11T04:22:07.143Z,84.76
2022-09-11T04:24:40.818Z,84.72
2022-09-11T04:27:12.996Z,84.99
2022-09-11T04:29:44.879Z,84.78
2022-09-11T04:32:17.198Z,84.89
2022-09-11T04:34:49.447Z,84.98
2022-09-11T04:37:22.076Z,84.90
2022-09-11T04:39:54.277Z,85.05
2022-09-11T04:42:27.095Z,85.16
2022-09-11T04:44:59.320Z,85.04
2022-09-11T04:47:31.496Z,85.13
2022-09-11T04:50:03.356Z,85.06
2022-09-11T04:52:35.314Z,84.89
2022-09-11T04:55:08.805Z,85.00
2022-09-11T04:57:41.115Z,84.93
2022-09-11T05:00:15.615Z,85.01
2022-09-11T05:02:48.755Z,85.12
2022-09-11T05:05:21.637Z,85.11
2022-09-11T05:07:53.581Z,85.24
2022-09-11T05:10:27.277Z,85.19
2022-09-11T05:12:59.289Z,85.24
2022-09-11T05:15:33.141Z,85.42
2022-09-11T05:18:05.380Z,85.48
2022-09-11T05:20:37.638Z,85.52
2022-09-11T05:23:09.555Z,85.40
2022-09-11T05:25:42.020Z,85.35
2022-09-11T05:28:13.820Z,85.46
2022-09-11T05:30:46.007Z,85.51
2022-09-11T05:33:17.917Z,85.51
2022-09-11T05:35:51.216Z,85.49
2022-09-11T05:38:24.848Z,85.07
2022-09-11T05:40:57.370Z,84.96
2022-09-11T05:43:29.278Z,84.90
2022-09-11T05:46:02.038Z,84.97
2022-09-11T05:48:35.251Z,85.03
2022-09-11T05:51:10.792Z,84.88
2022-09-11T05:53:43.686Z,85.00
2022-09-11T05:56:18.049Z,84.52
2022-09-11T05:58:52.668Z,84.56
2022-09-11T06:01:27.768Z,84.57
2022-09-11T06:04:09.771Z,84.60
2022-09-11T06:06:42.132Z,84.52
2022-09-11T06:09:14.150Z,84.58
2022-09-11T06:11:46.057Z,84.51
2022-09-11T06:14:18.212Z,84.50
2022-09-11T06:16:50.737Z,84.47
2022-09-11T06:19:22.980Z,84.24
2022-09-11T06:21:56.426Z,84.32
2022-09-11T06:24:30.383Z,84.20
2022-09-11T06:27:02.277Z,84.21
2022-09-11T06:29:34.326Z,84.28
2022-09-11T06:32:06.837Z,84.44
2022-09-11T06:34:39.318Z,84.34
2022-09-11T06:37:13.302Z,84.33
2022-09-11T06:39:45.852Z,84.23
2022-09-11T06:42:23.615Z,84.30
2022-09-11T06:44:55.945Z,84.37
2022-09-11T06:47:29.051Z,84.60
2022-09-11T06:50:02.710Z,84.61
2022-09-11T06:52:43.988Z,84.74
2022-09-11T06:55:27.891Z,84.79
2022-09-11T06:58:04.089Z,84.76
2022-09-11T07:00:37.707Z,84.72
2022-09-11T07:03:09.925Z,84.64
2022-09-11T07:05:48.463Z,84.44
2022-09-11T07:08:24.841Z,84.39
2022-09-11T07:11:03.585Z,84.51
2022-09-11T07:13:46.053Z,84.49
2022-09-11T07:16:19.685Z,84.12
2022-09-11T07:18:56.435Z,84.07
2022-09-11T07:21:29.096Z,83.90
2022-09-11T07:24:04.014Z,83.83
2022-09-11T07:26:40.297Z,83.83
2022-09-11T07:29:19.848Z,83.69
2022-09-11T07:31:55.884Z,83.66
2022-09-11T07:34:30.448Z,83.61
2022-09-11T07:37:03.869Z,83.71
2022-09-11T07:39:36.253Z,83.77
2022-09-11T07:42:19.210Z,83.67
2022-09-11T07:44:51.765Z,83.60
2022-09-11T07:47:23.899Z,83.45
2022-09-11T07:49:56.927Z,83.58
2022-09-11T07:52:29.511Z,83.29
2022-09-11T07:55:04.548Z,83.32
2022-09-11T07:57:38.839Z,83.39
2022-09-11T08:00:16.384Z,83.22
2022-09-11T08:02:59.176Z,83.16
2022-09-11T08:05:38.048Z,83.13
2022-09-11T08:08:10.280Z,82.93
2022-09-11T08:10:42.942Z,82.83
2022-09-11T08:13:16.834Z,82.55
2022-09-11T08:15:51.944Z,82.50
2022-09-11T08:18:24.836Z,82.63
2022-09-11T08:21:01.703Z,82.69
2022-09-11T08:23:34.228Z,82.59
2022-09-11T08:26:12.193Z,82.38
2022-09-11T08:28:46.082Z,82.40
2022-09-11T08:31:18.933Z,82.39
2022-09-11T08:33:51.216Z,82.43
2022-09-11T08:36:25.204Z,82.30
2022-09-11T08:38:57.672Z,82.10
2022-09-11T08:41:41.167Z,82.14
2022-09-11T08:44:21.003Z,82.20
2022-09-11T08:46:57.901Z,82.14
2022-09-11T08:49:35.569Z,82.28
2022-09-11T08:52:12.387Z,82.25
2022-09-11T08:54:47.549Z,82.56
2022-09-11T08:57:25.410Z,82.72
2022-09-11T09:00:07.591Z,82.72
2022-09-11T09:02:58.699Z,82.73
2022-09-11T09:05:38.652Z,82.82
2022-09-11T09:08:25.470Z,82.97
2022-09-11T09:11:06.316Z,82.99
2022-09-11T09:13:54.889Z,83.04
2022-09-11T09:16:46.489Z,83.09
2022-09-11T09:19:25.615Z,82.96
2022-09-11T09:22:06.936Z,82.93
2022-09-11T09:24:44.558Z,82.66
2022-09-11T09:27:21.500Z,82.62
2022-09-11T09:30:02.013Z,82.84
2022-09-11T09:32:40.327Z,82.25
2022-09-11T09:35:17.937Z,81.85
2022-09-11T09:37:49.965Z,81.78
2022-09-11T09:40:24.871Z,81.64
2022-09-11T09:43:12.260Z,81.58
2022-09-11T09:45:52.226Z,81.40
2022-09-11T09:48:25.579Z,81.12
2022-09-11T09:50:57.447Z,81.06
2022-09-11T09:53:36.064Z,80.75
2022-09-11T09:56:08.960Z,80.77
2022-09-11T09:58:50.058Z,80.39
2022-09-11T10:01:47.753Z,80.44
2022-09-11T10:04:23.891Z,80.49
2022-09-11T10:07:08.419Z,80.53
2022-09-11T10:09:48.337Z,80.56
2022-09-11T10:12:26.523Z,80.75
2022-09-11T10:15:01.456Z,80.51
2022-09-11T10:17:37.538Z,80.58
2022-09-11T10:20:25.945Z,80.65
2022-09-11T10:23:18.549Z,80.70
2022-09-11T10:25:52.005Z,80.59
2022-09-11T10:28:32.213Z,80.45
2022-09-11T10:31:06.131Z,80.30
2022-09-11T10:33:42.710Z,79.99
2022-09-11T10:36:22.690Z,79.83
2022-09-11T10:38:56.245Z,79.65
2022-09-11T10:41:32.303Z,79.55
2022-09-11T10:44:07.853Z,79.62
2022-09-11T10:46:41.477Z,79.49
2022-09-11T10:49:22.835Z,79.62
2022-09-11T10:52:17.354Z,79.58
2022-09-11T10:55:04.831Z,79.82
2022-09-11T10:57:45.132Z,79.53
2022-09-11T11:00:21.606Z,79.31
2022-09-11T11:02:57.054Z,79.12
2022-09-11T11:05:34.629Z,78.74
2022-09-11T11:08:23.867Z,78.86
2022-09-11T11:11:07.610Z,78.68
2022-09-11T11:13:55.741Z,78.19
2022-09-11T11:16:43.053Z,78.04
2022-09-11T11:19:31.607Z,77.24
2022-09-11T11:22:16.542Z,77.14
2022-09-11T11:25:05.157Z,77.05
2022-09-11T11:28:00.479Z,76.87
2022-09-11T11:30:37.833Z,76.25
2022-09-11T11:33:35.484Z,76.16
2022-09-11T11:36:15.380Z,75.92
2022-09-11T11:39:00.297Z,75.64
2022-09-11T11:41:38.821Z,75.37
2022-09-11T11:44:17.338Z,75.16
2022-09-11T11:46:55.628Z,74.88
2022-09-11T11:49:39.801Z,74.48
2022-09-11T11:52:24.775Z,74.62
2022-09-11T11:55:02.901Z,74.48
2022-09-11T11:57:41.904Z,74.27
2022-09-11T12:00:19.368Z,74.33
2022-09-11T12:02:59.101Z,74.28
2022-09-11T12:05:34.832Z,74.14
2022-09-11T12:08:11.899Z,73.86
2022-09-11T12:10:48.037Z,73.65
2022-09-11T12:13:31.002Z,73.45
2022-09-11T12:16:12.487Z,73.44
2022-09-11T12:19:02.192Z,73.27
2022-09-11T12:21:40.759Z,73.26
2022-09-11T12:24:19.855Z,72.93
2022-09-11T12:27:29.292Z,72.67
2022-09-11T12:30:21.442Z,72.47
2022-09-11T12:32:55.035Z,72.12
2022-09-11T12:35:41.674Z,71.70
2022-09-11T12:38:24.085Z,71.46
2022-09-11T12:40:59.921Z,71.64
2022-09-11T12:43:47.745Z,71.52
2022-09-11T12:46:55.166Z,71.32
2022-09-11T12:49:28.770Z,70.98
2022-09-11T12:52:03.264Z,70.83
2022-09-11T12:54:41.064Z,70.78
2022-09-11T12:57:21.347Z,70.45
2022-09-11T13:00:00.266Z,70.14
2022-09-11T13:02:39.337Z,69.89
2022-09-11T13:05:23.596Z,69.28
2022-09-11T13:07:59.636Z,68.73
2022-09-11T13:10:37.526Z,68.64
2022-09-11T13:13:44.911Z,68.49
2022-09-11T13:16:25.804Z,67.86
2022-09-11T13:19:03.051Z,67.79
2022-09-11T13:21:40.540Z,67.42
2022-09-11T13:24:27.552Z,67.08
2022-09-11T13:26:59.846Z,66.58
2022-09-11T13:29:37.949Z,66.29
2022-09-11T13:32:14.780Z,66.17
2022-09-11T13:34:50.002Z,66.04
2022-09-11T13:37:35.810Z,65.93
2022-09-11T13:40:19.001Z,65.67
2022-09-11T13:42:51.845Z,65.46
2022-09-11T13:45:25.061Z,65.15
2022-09-11T13:47:58.082Z,65.15
2022-09-11T13:50:30.064Z,64.63
2022-09-11T13:53:03.362Z,64.46
2022-09-11T13:55:35.463Z,64.33
2022-09-11T13:58:24.648Z,64.13
2022-09-11T14:00:56.998Z,62.97
2022-09-11T14:03:31.859Z,62.72
2022-09-11T14:06:10.074Z,62.28
2022-09-11T14:08:46.746Z,62.31
2022-09-11T14:11:26.197Z,61.90
2022-09-11T14:14:01.026Z,61.51
2022-09-11T14:16:36.319Z,60.90
2022-09-11T14:19:14.300Z,60.54
2022-09-11T14:21:48.455Z,60.36
2022-09-11T14:24:32.658Z,59.74
2022-09-11T14:27:27.554Z,59.21
2022-09-11T14:30:00.623Z,58.70
2022-09-11T14:32:36.950Z,58.84
2022-09-11T14:35:12.755Z,58.88
2022-09-11T14:37:47.187Z,58.80
2022-09-11T14:40:20.406Z,58.64
2022-09-11T14:42:52.823Z,58.37
2022-09-11T14:45:26.961Z,58.10
2022-09-11T14:47:58.851Z,58.15
2022-09-11T14:50:30.963Z,58.29
2022-09-11T14:53:02.978Z,57.92
2022-09-11T14:55:36.660Z,58.07
2022-09-11T14:58:09.105Z,58.32
2022-09-11T15:00:41.754Z,58.15
2022-09-11T15:03:15.155Z,57.87
2022-09-11T15:05:49.011Z,57.71
2022-09-11T15:08:20.881Z,57.36
2022-09-11T15:10:54.557Z,56.81
2022-09-11T15:13:27.291Z,56.08
2022-09-11T15:15:59.251Z,55.57
2022-09-11T15:18:31.440Z,55.55
2022-09-11T15:21:03.280Z,55.21
2022-09-11T15:23:35.165Z,55.26
2022-09-11T15:26:08.378Z,55.06
2022-09-11T15:28:40.185Z,54.80
2022-09-11T15:31:12.559Z,55.00
2022-09-11T15:33:47.643Z,55.00
2022-09-11T15:36:21.465Z,54.97
2022-09-11T15:38:56.816Z,54.80
2022-09-11T15:41:30.195Z,54.22
2022-09-11T15:44:02.746Z,54.43
2022-09-11T15:46:35.367Z,53.99
2022-09-11T15:49:07.690Z,52.79
2022-09-11T15:51:41.198Z,52.41
2022-09-11T15:54:15.851Z,52.11
2022-09-11T15:56:48.153Z,52.37
2022-09-11T15:59:20.491Z,52.24
2022-09-11T16:01:52.389Z,52.23
2022-09-11T16:04:29.179Z,52.49
2022-09-11T16:07:01.537Z,52.57
2022-09-11T16:09:34.425Z,52.81
2022-09-11T16:12:07.497Z,52.71
2022-09-11T16:14:40.026Z,52.81
2022-09-11T16:17:16.822Z,53.20
2022-09-11T16:19:49.240Z,53.31
2022-09-11T16:22:21.193Z,53.43
2022-09-11T16:24:53.256Z,53.88
2022-09-11T16:27:25.912Z,53.77
2022-09-11T16:32:50.754Z,54.23
2022-09-11T16:35:23.573Z,54.99
2022-09-11T16:37:56.258Z,55.30
2022-09-11T16:40:28.175Z,55.17
2022-09-11T16:43:00.217Z,55.09
2022-09-11T16:45:32.801Z,55.16
2022-09-11T16:48:06.703Z,55.44
2022-09-11T16:50:39.456Z,55.68
2022-09-11T16:53:13.998Z,55.84
2022-09-11T16:55:47.319Z,56.00
2022-09-11T16:58:19.475Z,56.19
2022-09-11T17:00:51.872Z,56.37
2022-09-11T17:03:23.872Z,56.73
2022-09-11T17:05:57.862Z,57.28
2022-09-11T17:08:30.485Z,57.82
2022-09-11T17:11:04.620Z,58.39
2022-09-11T17:13:37.413Z,58.53
2022-09-11T17:16:16.634Z,58.64
2022-09-11T17:18:51.153Z,59.10
2022-09-11T17:21:25.338Z,59.41
2022-09-11T17:24:00.025Z,59.64
2022-09-11T17:26:32.685Z,60.14
2022-09-11T17:29:06.508Z,60.58
2022-09-11T17:31:38.864Z,60.97
2022-09-11T17:34:10.889Z,61.19
2022-09-11T17:36:43.314Z,61.54
2022-09-11T17:39:15.304Z,61.92
2022-09-11T17:41:47.196Z,62.11
2022-09-11T17:44:19.246Z,62.12
2022-09-11T17:46:52.169Z,62.41
2022-09-11T17:49:24.044Z,62.78
2022-09-11T17:51:57.135Z,62.81
2022-09-11T17:54:29.596Z,62.95
2022-09-11T17:57:01.933Z,63.13
2022-09-11T17:59:33.907Z,63.30
2022-09-11T18:02:06.647Z,63.29
2022-09-11T18:04:38.930Z,63.15
2022-09-11T18:07:11.112Z,63.01
2022-09-11T18:09:43.435Z,63.04
2022-09-11T18:12:15.667Z,62.90
2022-09-11T18:14:48.047Z,62.97
2022-09-11T18:17:20.218Z,63.18
2022-09-11T18:19:52.030Z,63.10
2022-09-11T18:22:24.427Z,63.20
2022-09-11T18:24:56.464Z,63.50
2022-09-11T18:27:29.766Z,63.74
2022-09-11T18:30:02.385Z,63.75
2022-09-11T18:32:34.732Z,63.91
2022-09-11T18:35:07.967Z,63.71
2022-09-11T18:37:40.030Z,63.82
2022-09-11T18:40:12.594Z,64.00
2022-09-11T18:42:46.852Z,63.91
2022-09-11T18:45:20.643Z,63.76
2022-09-11T18:47:54.641Z,63.99
2022-09-11T18:50:27.314Z,63.73
2022-09-11T18:53:00.160Z,63.83
2022-09-11T18:55:32.280Z,63.60
2022-09-11T18:58:04.973Z,63.22
2022-09-11T19:00:38.056Z,63.10
2022-09-11T19:03:10.891Z,63.22
2022-09-11T19:05:42.676Z,63.17
2022-09-11T19:08:14.669Z,63.23
2022-09-11T19:10:46.567Z,63.15
2022-09-11T19:13:18.998Z,63.06
2022-09-11T19:16:00.380Z,63.04
2022-09-11T19:18:33.033Z,63.17
2022-09-11T19:21:08.327Z,63.14
2022-09-11T19:23:41.892Z,63.14
2022-09-11T19:26:19.387Z,63.35
2022-09-11T19:28:50.442Z,63.25
2022-09-11T19:31:25.027Z,63.36
2022-09-11T19:34:01.007Z,63.25
2022-09-11T19:36:35.480Z,63.42
2022-09-11T19:39:08.167Z,63.36
2022-09-11T19:41:40.845Z,63.05
2022-09-11T19:44:14.691Z,62.97
2022-09-11T19:46:49.121Z,62.95
2022-09-11T19:49:21.196Z,62.89
2022-09-11T19:51:54.717Z,63.00
2022-09-11T19:54:26.904Z,63.08
2022-09-11T19:57:00.303Z,62.87
2022-09-11T19:59:32.925Z,62.93
2022-09-11T20:02:05.073Z,62.91
2022-09-11T20:04:37.326Z,62.85
2022-09-11T20:07:09.282Z,62.84
2022-09-11T20:09:42.993Z,62.90
2022-09-11T20:12:15.410Z,63.03
2022-09-11T20:14:48.604Z,63.07
2022-09-11T20:17:20.436Z,63.29
2022-09-11T20:19:52.827Z,63.28
2022-09-11T20:22:24.854Z,63.25
2022-09-11T20:24:56.676Z,63.37
2022-09-11T20:27:28.663Z,63.31
2022-09-11T20:30:00.838Z,63.40
2022-09-11T20:32:33.092Z,63.30
2022-09-11T20:35:05.695Z,63.37
2022-09-11T20:37:37.753Z,63.19
2022-09-11T20:40:12.377Z,63.22
2022-09-11T20:42:44.296Z,63.26
2022-09-11T20:45:16.510Z,63.29
2022-09-11T20:47:48.874Z,63.28
2022-09-11T20:50:20.826Z,63.30
2022-09-11T20:52:52.875Z,63.41
2022-09-11T20:55:24.685Z,63.61
2022-09-11T20:57:56.638Z,63.65
2022-09-11T21:00:28.671Z,63.59
2022-09-11T21:03:00.938Z,63.63
2022-09-11T21:05:33.131Z,63.77
2022-09-11T21:08:05.647Z,63.60
2022-09-11T21:10:39.535Z,63.89
2022-09-11T21:13:11.906Z,63.96
2022-09-11T21:15:48.086Z,63.94
2022-09-11T21:18:20.746Z,64.06
2022-09-11T21:20:57.204Z,64.33
2022-09-11T21:23:29.197Z,64.33
2022-09-11T21:26:01.147Z,64.51
2022-09-11T21:28:33.356Z,64.59
2022-09-11T21:31:05.738Z,64.55
2022-09-11T21:33:38.864Z,64.75
2022-09-11T21:36:11.064Z,64.80
2022-09-11T21:38:43.209Z,65.02
2022-09-11T21:41:16.116Z,65.09
2022-09-11T21:43:48.794Z,65.16
2022-09-11T21:46:21.179Z,65.16
2022-09-11T21:48:52.990Z,65.26
2022-09-11T21:51:25.439Z,65.43
2022-09-11T21:54:01.761Z,65.47
2022-09-11T21:56:34.958Z,65.49
2022-09-11T21:59:06.887Z,65.72
2022-09-11T22:01:38.835Z,65.81
2022-09-11T22:04:10.764Z,66.01
2022-09-11T22:06:42.663Z,66.11
2022-09-11T22:09:20.281Z,66.16
2022-09-11T22:11:54.780Z,66.24
2022-09-11T22:14:28.981Z,66.26
2022-09-11T22:17:00.909Z,66.43
2022-09-11T22:19:32.968Z,66.69
2022-09-11T22:22:06.710Z,66.78
2022-09-11T22:24:39.174Z,66.96
2022-09-11T22:27:11.693Z,66.94
2022-09-11T22:29:47.028Z,67.08
2022-09-11T22:32:19.025Z,67.26
2022-09-11T22:34:50.973Z,67.24
2022-09-11T22:37:23.672Z,67.53
2022-09-11T22:39:55.528Z,67.56
2022-09-11T22:42:27.392Z,67.64
2022-09-11T22:44:59.204Z,67.74
2022-09-11T22:47:31.369Z,67.78
2022-09-11T22:50:03.276Z,67.96
2022-09-11T22:52:35.801Z,68.10
2022-09-11T22:55:10.756Z,68.34
2022-09-11T22:57:42.975Z,68.37
2022-09-11T23:00:16.224Z,68.50
2022-09-11T23:02:48.069Z,68.61
2022-09-11T23:05:37.527Z,68.70
2022-09-11T23:08:09.478Z,68.77
2022-09-11T23:10:45.317Z,68.82
2022-09-11T23:13:17.444Z,68.98
2022-09-11T23:15:49.804Z,69.05
2022-09-11T23:18:22.357Z,69.23
2022-09-11T23:20:56.741Z,69.28
2022-09-11T23:23:28.696Z,69.33
2022-09-11T23:26:00.677Z,69.39
2022-09-11T23:28:34.631Z,69.45
2022-09-11T23:31:13.337Z,69.63
2022-09-11T23:33:47.271Z,69.78
2022-09-11T23:36:19.956Z,69.83
2022-09-11T23:38:52.432Z,69.88
2022-09-11T23:41:25.291Z,70.00
2022-09-11T23:43:57.176Z,70.00
2022-09-11T23:46:29.175Z,70.11
2022-09-11T23:49:01.495Z,70.25
2022-09-11T23:51:33.299Z,70.40
2022-09-11T23:54:05.232Z,70.49
2022-09-11T23:56:37.292Z,70.65
2022-09-11T23:59:09.236Z,70.56
